Flight Track Log - Related Links

Times and Time Zones

All times are in EDT time to prevent confusion due to time zone crossing. See the N830QS flight status page for this flight to view local times or setup timezone preferences in your user account.

Time Position Orientation Groundspeed Altitude Reporting Facility
EDT Latitude Longitude Course Direction KTS MPH feet Rate Location/Type
Fri 11:09:31 AM 32.4556 -83.6547 158° South 281 323 11,500  Level Atlanta Center
Fri 11:10:31 AM 32.3803 -83.6108 154° Southeast 286 329 14,400 1,750 Climbing Atlanta Center
Fri 11:11:31 AM 32.2989 -83.5669 155° Southeast 303 349 15,000 950 Climbing Atlanta Center
Fri 11:12:00 AM 32.1647 -83.3719 150° Southeast  Level Estimated
Fri 11:12:31 AM 32.2108 -83.5158 154° Southeast 318 366 16,300  Level Atlanta Center
Fri 11:13:39 AM 32.1153 -83.4592 153° Southeast 309 356 19,600 2,484 Climbing Jacksonville Center
Fri 11:14:39 AM 32.0297 -83.4072 153° Southeast 324 373 21,600 2,200 Climbing Jacksonville Center
Fri 11:15:39 AM 31.9381 -83.3625 158° South 339 390 24,000 1,950 Climbing Jacksonville Center
Fri 11:16:39 AM 31.8547 -83.3231 158° South 351 404 25,500 950 Climbing Jacksonville Center
Fri 11:17:39 AM 31.7608 -83.2761 157° South 363 418 25,900 250 Climbing Jacksonville Center
Fri 11:18:39 AM 31.6714 -83.2294 156° South 363 418 26,000 50 Climbing Jacksonville Center
Fri 11:19:39 AM 31.5817 -83.1853 157° South 358 412 26,000  Level Jacksonville Center
Fri 11:20:39 AM 31.4939 -83.1361 154° Southeast 358 412 26,000  Level Jacksonville Center
Fri 11:21:39 AM 31.4042 -83.0947 159° South 358 412 26,000  Level Jacksonville Center
Fri 11:22:39 AM 31.3167 -83.0458 154° Southeast 353 406 26,000  Level Jacksonville Center
Fri 11:23:39 AM 31.2292 -82.9994 156° South 353 406 26,000  Level Jacksonville Center
Fri 11:24:39 AM 31.1392 -82.9533 156° South 353 406 26,000  Level Jacksonville Center
Fri 11:25:39 AM 31.0433 -82.9072 158° South 353 406 26,000  Level Jacksonville Center
Fri 11:26:39 AM 30.9556 -82.8586 155° Southeast 353 406 26,000  Level Jacksonville Center
Fri 11:27:39 AM 30.8700 -82.8128 155° Southeast 353 406 26,000  Level Jacksonville Center
Fri 11:28:39 AM 30.7842 -82.7692 156° South 348 400 26,000  Level Jacksonville Center
Fri 11:29:39 AM 30.6944 -82.7211 155° Southeast 348 400 26,000  Level Jacksonville Center
Fri 11:30:39 AM 30.6089 -82.6753 155° Southeast 343 395 26,000  Level Jacksonville Center
Fri 11:31:39 AM 30.5211 -82.6369 159° South 343 395 26,000 -100 Level Jacksonville Center
Fri 11:32:39 AM 30.4333 -82.5986 159° South 338 389 25,800 -500 Descending Jacksonville Center
Fri 11:33:39 AM 30.3414 -82.5606 160° South 338 389 25,000 -400 Descending Jacksonville Center
Fri 11:34:39 AM 30.2450 -82.5175 159° South 355 409 25,000  Level Jacksonville Center
Fri 11:35:39 AM 30.1531 -82.4769 159° South 355 409 25,000  Level Jacksonville Center
Fri 11:36:38 AM 30.0611 -82.4367 159° South 355 409 25,000  Level Jacksonville Center
Fri 11:37:39 AM 29.9669 -82.3939 159° South 355 409 25,000  Level Jacksonville Center
Fri 11:38:39 AM 29.8728 -82.3536 160° South 355 409 25,000  Level Jacksonville Center
Fri 11:39:39 AM 29.7789 -82.3158 161° South 350 403 25,000  Level Jacksonville Center
Fri 11:40:39 AM 29.6867 -82.2733 158° South 350 403 25,000  Level Jacksonville Center
Fri 11:41:39 AM 29.5906 -82.2333 160° South 350 403 25,000 -800 Level Jacksonville Center
Fri 11:42:39 AM 29.4983 -82.1911 158° South 350 403 23,400 -1,700 Descending Jacksonville Center
Fri 11:43:39 AM 29.4083 -82.1536 160° South 350 403 21,600 -1,850 Descending Jacksonville Center
Fri 11:44:39 AM 29.3164 -82.1161 160° South 350 403 19,700 -1,850 Descending Jacksonville Center
Fri 11:45:39 AM 29.2283 -82.0789 160° South 350 403 17,900 -1,750 Descending Jacksonville Center
Fri 11:46:39 AM 29.1406 -82.0414 160° South 350 403 16,200 -1,700 Descending Jacksonville Center
Fri 11:47:39 AM 29.0567 -82.0067 160° South 344 396 14,500 -1,650 Descending Jacksonville Center
Fri 11:48:39 AM 28.9753 -81.9739 161° South 325 374 12,900 -1,550 Descending Jacksonville Center
Fri 11:49:39 AM 28.9039 -81.9439 160° South 315 362 11,400 -1,150 Descending Jacksonville Center
Fri 11:50:39 AM 28.8244 -81.9114 160° South 304 350 10,600 -1,000 Descending Jacksonville Center
Fri 11:51:39 AM 28.7492 -81.8814 161° South 299 344 9,400 -1,227 Descending Jacksonville Center
Fri 11:52:51 AM 28.6500 -81.8500 164° South 293 337 7,900 -1,500 Descending Orlando TRACON
Fri 11:53:51 AM 28.5833 -81.8167 156° South 256 295 6,100 -1,381 Descending Orlando TRACON
Fri 11:54:57 AM 28.5167 -81.7833 156° South 237 273 5,000 -942 Descending Orlando TRACON
Fri 11:55:52 AM 28.4833 -81.7500 139° Southeast 229 264 4,200 -1,043 Descending Orlando TRACON
Fri 11:56:52 AM 28.4500 -81.6833 120° Southeast 208 239 3,000 -850 Descending Orlando TRACON
Fri 11:57:52 AM 28.4167 -81.6167 120° Southeast 199 229 2,500 -500 Descending Orlando TRACON
Fri 11:58:52 AM 28.4000 -81.5667 111° Southeast 199 229 2,000 -238 Descending Orlando TRACON
Fri 11:59:58 AM 28.3667 -81.5167 127° Southeast 187 215 2,000 -298 Level Orlando TRACON
Fri 12:00:53 PM 28.3500 -81.4833 120° Southeast 136 157 1,400 -730 Descending Orlando TRACON
Fri 12:01:53 PM 28.3167 -81.4500 139° Southeast 116 133 600 -800 Descending Orlando TRACON
Fri 12:03:00 PM 28.2898 -81.4371 174° South  Level Estimated
Fri 12:10:00 PM 28.2898 -81.4371 350° North  Level Estimated
Fri 12:11:00 PM 28.2898 -81.4371 350° North  Level Estimated
Fri 12:12:00 PM 28.2898 -81.4371 350° North  Level Estimated
Fri 12:13:00 PM 28.2898 -81.4371 350° North  Level Estimated

Login

Don't have an account? Register now (free) for customized features, flight alerts, and more!